• Join FlightAware (Why Join?)
  • Login
  • US Flag 
06:59PM EDT


 

Airport Tracker/Info


-or-


 

Live Flight TrackerFlight Track Log ✈ AWE1932 ✈ 29-Apr-2013 ✈ KRSW - KPHL

Flight Track Log - Related Links

Times and Time Zones

All times are in EDT time to prevent confusion due to time zone crossing. See the AWE1932 flight status page for this flight to view local times or setup timezone preferences in your user account.

Time Position Orientation Groundspeed Altitude Reporting Facility
EDT Latitude Longitude Course Direction KTS MPH feet Rate Location/Type
06:10AM 26.6208 -81.6850 344° North 243 280 3,200  Level Miami Center
06:11AM 26.6811 -81.6922 354° North 270 311 5,400 2,520 Climbing Miami Center
06:12AM 26.9259 -81.7333 North  Level FlightAware Approximate
06:12AM 26.7664 -81.7025 354° North 270 311 8,300  Level Miami Center
06:13AM 27.0549 -81.7486 340° North  Level FlightAware Approximate
06:13AM 26.8475 -81.7153 352° North 298 343 10,600  Level Miami Center
06:14AM 27.1800 -81.7933 343° North  Level FlightAware Approximate
06:14AM 26.9389 -81.7214 357° North 312 359 11,600  Level Miami Center
06:15AM 27.3049 -81.8386 340° North  Level FlightAware Approximate
06:15AM 27.0147 -81.6383 44° Northeast 322 371 13,900  Level Miami Center
06:16AM 27.4303 -81.8823 344° North  Level FlightAware Approximate
06:16AM 27.0867 -81.5503 47° Northeast 344 396 16,300  Level Miami Center
06:17AM 27.1669 -81.4508 48° Northeast 366 421 18,400 1,980 Climbing Miami Center
06:18AM 27.2364 -81.3650 48° Northeast 404 465 20,300 1,560 Climbing Miami Center
06:19AM 27.3147 -81.2697 47° Northeast 409 471 21,600 1,500 Climbing Miami Center
06:20AM 27.3928 -81.1700 49° Northeast 409 471 23,300 1,500 Climbing Miami Center
06:21AM 27.4728 -81.0725 47° Northeast 421 484 24,600 1,260 Climbing Miami Center
06:22AM 27.5553 -80.9675 48° Northeast 432 497 25,900 1,080 Climbing Miami Center
06:23AM 27.6417 -80.8631 47° Northeast 437 503 26,800 1,140 Climbing Miami Center
06:24AM 27.7281 -80.7533 48° Northeast 450 518 28,200 1,260 Climbing Miami Center
06:25AM 27.8125 -80.6436 49° Northeast 456 525 29,400 1,440 Climbing Miami Center
06:26AM 27.8967 -80.5336 49° Northeast 456 525 31,100 1,440 Climbing Miami Center
06:27AM 27.9869 -80.4283 46° Northeast 461 531 32,300 1,200 Climbing Miami Center
06:28AM 28.0797 -80.3114 48° Northeast 456 525 33,500 1,020 Climbing Miami Center
06:29AM 28.1636 -80.2056 48° Northeast 451 519 34,400 720 Climbing Miami Center
06:30AM 28.2475 -80.0997 48° Northeast 451 519 35,000 300 Climbing Miami Center
06:31AM 28.3267 -80.0006 48° Northeast 451 519 35,000  Level Miami Center
06:32AM 28.4083 -79.8942 49° Northeast 451 519 35,000  Level Miami Center
06:33AM 28.4919 -79.7878 48° Northeast 451 519 35,000  Level Miami Center
06:34AM 28.5756 -79.6767 49° Northeast 451 519 35,000  Level Miami Center
06:35AM 28.6592 -79.5700 48° Northeast 451 519 35,000 -60 Level Miami Center
06:36AM 28.7403 -79.4606 50° Northeast 451 519 34,900  Descending Miami Center
06:37AM 28.8278 -79.3536 47° Northeast 451 519 35,000  Climbing Miami Center
06:38AM 28.9131 -79.2464 48° Northeast 451 519 35,000  Level Miami Center
06:39AM 29.0003 -79.1417 46° Northeast 451 519 35,000  Level Miami Center
06:40AM 29.1117 -79.0989 19° North 421 484 35,000 -60 Level Miami Center
06:41AM 29.2247 -79.0653 15° North 423 487 34,900 -60 Descending Miami Center
06:42AM 29.3442 -79.0344 13° North 423 487 34,900  Level Miami Center
06:43AM 29.4656 -79.0058 12° North 423 487 35,000  Climbing Miami Center
06:45AM 29.6933 -78.9264 17° North 431 496 35,000  Level Jacksonville Center
06:46AM 29.8111 -78.8833 18° North 431 496 35,000  Level Jacksonville Center
06:47AM 29.9267 -78.8425 17° North 431 496 35,000  Level Jacksonville Center
06:48AM 30.0506 -78.8039 15° North 436 502 35,000  Level Jacksonville Center
06:49AM 30.1639 -78.7511 22° Northeast 443 510 35,000  Level Jacksonville Center
06:50AM 30.2833 -78.7075 17° North 448 516 35,000  Level Jacksonville Center
06:51AM 30.4069 -78.6586 19° North 453 521 35,000  Level Jacksonville Center
06:52AM 30.5244 -78.6147 18° North 449 517 35,000  Level Jacksonville Center
06:53AM 30.6442 -78.5683 18° North 449 517 35,000  Level Jacksonville Center
06:54AM 30.7656 -78.5242 17° North 444 511 35,000  Level Jacksonville Center
06:55AM 30.8811 -78.4778 19° North 444 511 35,000  Level Jacksonville Center
06:56AM 31.0025 -78.4333 17° North 439 505 35,000 -60 Level Jacksonville Center
06:57AM 31.1200 -78.3889 18° North 439 505 34,900 -60 Descending Jacksonville Center
06:58AM 31.2394 -78.3419 19° North 439 505 34,900  Level Jacksonville Center
06:59AM 31.3567 -78.2972 18° North 439 505 35,000  Climbing Jacksonville Center
07:00AM 31.4883 -78.2397 20° North 442 509 35,000  Level Jacksonville Center
07:01AM 31.6033 -78.1925 19° North 437 503 35,000 -60 Level Jacksonville Center
07:02AM 31.7225 -78.1425 20° North 434 499 34,900 -600 Descending Jacksonville Center
07:03AM 31.8378 -78.0950 19° North 432 497 33,800 -1,320 Descending Jacksonville Center
07:04AM 31.9594 -78.0544 16° North 443 510 32,300 -1,500 Descending Jacksonville Center
07:05AM 32.0808 -78.0086 18° North 443 510 30,800 -1,500 Descending Jacksonville Center
07:06AM 32.2039 -77.9581 19° North 462 532 29,300 -900 Descending Jacksonville Center
07:07AM 32.3147 -77.9103 20° North 456 525 29,000 -180 Descending Jacksonville Center
07:08AM 32.4361 -77.8667 17° North 451 519 29,000  Level Jacksonville Center
07:09AM 32.5553 -77.8181 19° North 451 519 29,000  Level Jacksonville Center
07:10AM 32.6764 -77.7694 19° North 456 525 29,000  Level Jacksonville Center
07:11AM 32.7978 -77.7231 18° North 456 525 29,000  Level Jacksonville Center
07:12AM 32.9189 -77.6714 20° North 456 525 29,000  Level Jacksonville Center
07:13AM 33.0400 -77.6247 18° North 456 525 29,000  Level Jacksonville Center
07:16AM 33.3283 -77.5078 19° North 455 524 29,000  Level Washington Center
07:17AM 33.4522 -77.4583 18° North 455 524 29,000  Level Washington Center
07:18AM 33.5739 -77.4089 19° North 455 524 29,000  Level Washington Center
07:19AM 33.6936 -77.3589 19° North 455 524 29,000  Level Washington Center
07:20AM 33.8217 -77.3092 18° North 465 535 29,000  Level Washington Center
07:21AM 33.9433 -77.2567 20° North 465 535 29,000  Level Washington Center
07:22AM 34.0692 -77.2067 18° North 465 535 29,000  Level Washington Center
07:23AM 34.1928 -77.1561 19° North 470 541 29,000  Level Washington Center
07:24AM 34.3186 -77.1058 18° North 465 535 29,000  Level Washington Center
07:25AM 34.4425 -77.0528 19° North 465 535 29,000  Level Washington Center
07:26AM 34.5661 -76.9994 20° North 470 541 29,000  Level Washington Center
07:27AM 34.6900 -76.9486 19° North 470 541 29,000  Level Washington Center
07:28AM 34.8136 -76.8950 20° North 470 541 29,000  Level Washington Center
07:29AM 34.9394 -76.8436 19° North 470 541 29,000  Level Washington Center
07:30AM 35.0631 -76.7897 20° North 470 541 29,000  Level Washington Center
07:31AM 35.1867 -76.7358 20° North 464 534 29,000  Level Washington Center
07:32AM 35.3250 -76.6767 19° North 464 534 29,000  Level Washington Center
07:33AM 35.4442 -76.6222 20° North 472 543 29,000  Level Washington Center
07:34AM 35.5700 -76.5725 18° North 467 537 29,000  Level Washington Center
07:35AM 35.6933 -76.5153 21° North 467 537 29,000  Level Washington Center
07:36AM 35.8192 -76.4606 19° North 467 537 29,000  Level Washington Center
07:37AM 35.9447 -76.4078 19° North 467 537 29,000  Level Washington Center
07:38AM 36.0700 -76.3578 18° North 467 537 29,000  Level Washington Center
07:39AM 36.1956 -76.3025 20° North 467 537 29,000  Level Washington Center
07:40AM 36.3211 -76.2467 20° North 467 537 29,000  Level Washington Center
07:41AM 36.4467 -76.1911 20° North 467 537 29,000  Level Washington Center
07:42AM 36.5719 -76.1378 19° North 467 537 29,000  Level Washington Center
07:43AM 36.6933 -76.0842 19° North 467 537 29,000  Level Washington Center
07:44AM 36.8186 -76.0253 21° North 467 537 29,000  Level Washington Center
07:45AM 36.9419 -75.9686 20° North 467 537 29,000  Level Washington Center
07:46AM 37.0611 -75.9197 18° North 478 550 29,000  Level Washington Center
07:47AM 37.1842 -75.8656 19° North 478 550 29,000 -480 Level Washington Center
07:48AM 37.3094 -75.8061 21° North 478 550 28,100 -1,020 Descending Washington Center
07:49AM 37.4306 -75.7436 22° Northeast 471 542 27,000 -1,140 Descending Washington Center
07:50AM 37.5494 -75.6808 23° Northeast 466 536 25,900 -1,020 Descending Washington Center
07:51AM 37.6664 -75.6206 22° Northeast 460 529 25,000 -480 Descending Washington Center
07:52AM 37.7831 -75.5603 22° Northeast 452 520 25,000  Level Washington Center
07:53AM 37.8978 -75.4997 23° Northeast 452 520 25,000 -480 Level Washington Center
07:54AM 38.0144 -75.4364 23° Northeast 452 520 24,100 -900 Descending Washington Center
07:55AM 38.1269 -75.3700 25° Northeast 452 520 23,200 -960 Descending Washington Center
07:56AM 38.2417 -75.3167 20° North 447 514 22,200 -1,560 Descending Washington Center
07:57AM 38.3539 -75.2503 25° Northeast 436 502 20,200 -1,920 Descending Washington Center
07:58AM 38.4603 -75.1939 23° Northeast 431 496 18,400 -1,680 Descending Washington Center
07:59AM 38.5622 -75.1378 23° Northeast 408 470 16,900 -1,740 Descending Washington Center
08:00AM 38.6578 -75.0839 24° Northeast 387 445 15,000 -1,020 Descending Washington Center
08:01AM 38.7536 -75.0433 18° North 374 430 14,900 -60 Descending Washington Center
08:02AM 38.8536 -75.0344 North 361 415 14,900 -360 Level Washington Center
08:03AM 38.9514 -75.0258 North 355 409 14,300 -1,020 Descending Washington Center
08:04AM 39.0517 -75.0197 North 355 409 12,900 -1,320 Descending Washington Center
08:06AM 39.2500 -75.0000 North 349 402 10,600 -1,140 Descending Philadelphia TRACON
08:07AM 39.3333 -75.0000 360° North 302 348 9,700 -780 Descending Philadelphia TRACON
08:08AM 39.4167 -74.9833 North 301 346 9,100 -900 Descending Philadelphia TRACON
08:09AM 39.5000 -74.9667 North 300 345 8,000 -1,440 Descending Philadelphia TRACON
08:10AM 39.5500 -75.0333 314° West 262 302 6,300 -960 Descending Philadelphia TRACON
08:11AM 39.5167 -75.1167 243° Southwest 226 260 6,100 -120 Descending Philadelphia TRACON
08:12AM 39.5167 -75.2000 270° West 232 267 6,100  Level Philadelphia TRACON
08:13AM 39.5500 -75.2667 303° West 228 262 6,100  Level Philadelphia TRACON
08:14AM 39.6000 -75.3167 322° Northwest 250 288 6,100 -60 Level Philadelphia TRACON
08:15AM 39.6667 -75.3500 339° North 248 285 6,000  Descending Philadelphia TRACON
08:16AM 39.7333 -75.3833 339° North 221 254 6,100  Climbing Philadelphia TRACON
08:17AM 39.7167 -75.4500 252° West 176 203 6,000 -480 Descending Philadelphia TRACON
08:18AM 39.7167 -75.5000 270° West 174 200 5,200 -480 Descending Philadelphia TRACON
08:19AM 39.7000 -75.5667 252° West 174 200 5,100 -60 Descending Philadelphia TRACON
08:20AM 39.6833 -75.6333 252° West 174 200 5,100 -420 Level Philadelphia TRACON
08:21AM 39.7333 -75.6500 346° North 205 236 4,300 -840 Descending Philadelphia TRACON
08:22AM 39.7833 -75.6500 360° North 195 224 3,500 -600 Descending Philadelphia TRACON
08:23AM 39.8000 -75.6000 67° East 170 196 3,100 -240 Descending Philadelphia TRACON
08:24AM 39.8167 -75.5333 72° East 172 198 3,100 -60 Level Philadelphia TRACON
08:25AM 39.8167 -75.4667 90° East 170 196 3,000 -480 Descending Philadelphia TRACON
08:26AM 39.8333 -75.4167 67° East 172 198 2,200 -840 Descending Philadelphia TRACON